Time,TemperatureF,DewpointF,PressureIn,WindDirection,WindDirectionDegrees,WindSpeedMPH,WindSpeedGustMPH,Humidity,HourlyPrecipIn,Conditions,Clouds,dailyrainin,SoftwareType,DateUTC
2013-11-17 00:06:00,47.2,38.0,30.20,WNW,285,2.0,3.0,71,0.00,,,0.00,weatherlink.com 1.10,2013-11-17 05:06:00,
2013-11-17 00:21:00,45.9,38.0,30.19,ENE,69,3.0,9.0,75,0.00,,,0.00,weatherlink.com 1.10,2013-11-17 05:21:00,
2013-11-17 00:36:00,46.7,40.0,30.19,SW,236,1.0,4.0,76,0.00,,,0.00,weatherlink.com 1.10,2013-11-17 05:36:00,
2013-11-17 00:51:00,45.4,38.0,30.19,ESE,110,2.0,5.0,76,0.00,,,0.00,weatherlink.com 1.10,2013-11-17 05:51:00,
2013-11-17 01:06:00,44.4,39.0,30.18,ESE,120,3.0,4.0,81,0.00,,,0.00,weatherlink.com 1.10,2013-11-17 06:06:00,
2013-11-17 01:21:00,45.2,39.0,30.18,East,91,0.0,7.0,78,0.00,,,0.00,weatherlink.com 1.10,2013-11-17 06:21:00,
2013-11-17 01:36:00,43.8,38.0,30.18,North,355,0.0,2.0,80,0.00,,,0.00,weatherlink.com 1.10,2013-11-17 06:36:00,
2013-11-17 01:51:00,43.4,39.0,30.17,South,191,1.0,3.0,85,0.00,,,0.00,weatherlink.com 1.10,2013-11-17 06:51:00,
2013-11-17 02:06:00,44.4,40.0,30.16,East,85,5.0,7.0,83,0.00,,,0.00,weatherlink.com 1.10,2013-11-17 07:06:00,
2013-11-17 02:21:00,46.9,41.0,30.16,ESE,113,4.0,8.0,81,0.00,,,0.00,weatherlink.com 1.10,2013-11-17 07:21:00,
2013-11-17 02:37:00,48.1,42.0,30.16,ESE,113,2.0,8.0,78,0.00,,,0.00,weatherlink.com 1.10,2013-11-17 07:37:00,
2013-11-17 02:52:00,47.7,41.0,30.16,SW,228,3.0,4.0,78,0.00,,,0.00,weatherlink.com 1.10,2013-11-17 07:52:00,
2013-11-17 03:07:00,47.6,41.0,30.16,South,173,1.0,6.0,78,0.00,,,0.00,weatherlink.com 1.10,2013-11-17 08:07:00,
2013-11-17 03:22:00,47.7,42.0,30.16,SSE,159,3.0,7.0,79,0.00,,,0.00,weatherlink.com 1.10,2013-11-17 08:22:00,
2013-11-17 03:37:00,47.3,42.0,30.16,ESE,105,0.0,10.0,81,0.00,,,0.00,weatherlink.com 1.10,2013-11-17 08:37:00,
2013-11-17 03:52:00,46.5,42.0,30.17,SE,134,3.0,7.0,84,0.00,,,0.00,weatherlink.com 1.10,2013-11-17 08:52:00,
2013-11-17 04:07:00,46.1,42.0,30.19,SE,131,0.0,9.0,85,0.00,,,0.00,weatherlink.com 1.10,2013-11-17 09:07:00,
2013-11-17 04:22:00,46.3,43.0,30.16,East,96,1.0,9.0,87,0.00,,,0.00,weatherlink.com 1.10,2013-11-17 09:22:00,
2013-11-17 04:37:00,46.3,43.0,30.16,West,279,0.0,5.0,87,0.00,,,0.00,weatherlink.com 1.10,2013-11-17 09:37:00,
2013-11-17 04:52:00,46.9,44.0,30.16,SE,126,3.0,8.0,88,0.00,,,0.00,weatherlink.com 1.10,2013-11-17 09:52:00,
2013-11-17 05:07:00,48.0,45.0,30.14,SSE,147,4.0,10.0,88,0.00,,,0.00,weatherlink.com 1.10,2013-11-17 10:07:00,
2013-11-17 05:22:00,48.1,45.0,30.14,ESE,110,0.0,10.0,90,0.00,,,0.00,weatherlink.com 1.10,2013-11-17 10:22:00,
2013-11-17 05:37:00,48.7,46.0,30.14,SSE,167,4.0,8.0,90,0.00,,,0.00,weatherlink.com 1.10,2013-11-17 10:37:00,
2013-11-17 05:52:00,49.0,46.0,30.14,SE,142,1.0,8.0,89,0.00,,,0.00,weatherlink.com 1.10,2013-11-17 10:52:00,
2013-11-17 06:07:00,48.9,46.0,30.13,SSW,213,3.0,6.0,89,0.00,,,0.00,weatherlink.com 1.10,2013-11-17 11:07:00,
2013-11-17 06:22:00,48.7,46.0,30.13,SSE,159,3.0,10.0,89,0.00,,,0.00,weatherlink.com 1.10,2013-11-17 11:22:00,
2013-11-17 06:37:00,48.9,46.0,30.13,ESE,123,1.0,10.0,89,0.00,,,0.00,weatherlink.com 1.10,2013-11-17 11:37:00,
2013-11-17 06:52:00,49.7,46.0,30.13,South,189,10.0,11.0,87,0.00,,,0.00,weatherlink.com 1.10,2013-11-17 11:52:00,
2013-11-17 07:07:00,50.4,46.0,30.14,SSW,196,5.0,17.0,86,0.00,,,0.00,weatherlink.com 1.10,2013-11-17 12:07:00,
2013-11-17 07:22:00,50.3,46.0,30.14,WSW,245,2.0,10.0,86,0.00,,,0.00,weatherlink.com 1.10,2013-11-17 12:22:00,
2013-11-17 07:37:00,49.4,46.0,30.13,SW,218,2.0,6.0,88,0.00,,,0.00,weatherlink.com 1.10,2013-11-17 12:37:00,
2013-11-17 07:52:00,49.1,46.0,30.13,SSE,160,2.0,7.0,89,0.00,,,0.00,weatherlink.com 1.10,2013-11-17 12:52:00,
2013-11-17 08:07:00,48.9,46.0,30.12,SSW,213,0.0,8.0,89,0.00,,,0.00,weatherlink.com 1.10,2013-11-17 13:07:00,
2013-11-17 08:22:00,48.9,46.0,30.12,South,189,4.0,10.0,90,0.00,,,0.00,weatherlink.com 1.10,2013-11-17 13:22:00,
2013-11-17 08:37:00,49.0,46.0,30.13,South,187,3.0,9.0,90,0.00,,,0.00,weatherlink.com 1.10,2013-11-17 13:37:00,
2013-11-17 08:52:00,49.1,47.0,30.13,SE,129,5.0,11.0,91,0.00,,,0.00,weatherlink.com 1.10,2013-11-17 13:52:00,
2013-11-17 09:07:00,49.1,47.0,30.13,East,95,5.0,10.0,92,0.00,,,0.00,weatherlink.com 1.10,2013-11-17 14:07:00,
2013-11-17 09:22:00,49.4,47.0,30.13,SSE,161,2.0,11.0,91,0.00,,,0.00,weatherlink.com 1.10,2013-11-17 14:22:00,
2013-11-17 09:37:00,49.7,47.0,30.13,SE,140,7.0,13.0,91,0.00,,,0.00,weatherlink.com 1.10,2013-11-17 14:37:00,
2013-11-17 09:52:00,49.6,47.0,30.13,ESE,109,2.0,15.0,92,0.00,,,0.00,weatherlink.com 1.10,2013-11-17 14:52:00,
2013-11-17 10:07:00,49.9,48.0,30.13,SSE,158,0.0,15.0,92,0.01,,,0.01,weatherlink.com 1.10,2013-11-17 15:07:00,
2013-11-17 10:22:00,50.7,49.0,30.11,South,188,3.0,12.0,92,0.01,,,0.01,weatherlink.com 1.10,2013-11-17 15:22:00,
2013-11-17 10:37:00,51.5,49.0,30.10,SE,129,1.0,13.0,92,0.01,,,0.01,weatherlink.com 1.10,2013-11-17 15:37:00,
2013-11-17 10:52:00,52.5,50.0,30.10,ENE,73,3.0,9.0,91,0.01,,,0.01,weatherlink.com 1.10,2013-11-17 15:52:00,
2013-11-17 11:07:00,52.9,50.0,30.09,South,176,5.0,11.0,90,0.00,,,0.01,weatherlink.com 1.10,2013-11-17 16:07:00,
2013-11-17 11:22:00,53.3,50.0,30.08,SE,129,6.0,12.0,89,0.00,,,0.01,weatherlink.com 1.10,2013-11-17 16:22:00,
2013-11-17 11:37:00,54.0,51.0,30.08,WSW,248,10.0,18.0,88,0.00,,,0.01,weatherlink.com 1.10,2013-11-17 16:37:00,
2013-11-17 11:52:00,54.3,51.0,30.07,SW,215,3.0,7.0,88,0.00,,,0.01,weatherlink.com 1.10,2013-11-17 16:52:00,
2013-11-17 12:08:00,54.5,51.0,30.06,ESE,103,3.0,16.0,87,0.00,,,0.01,weatherlink.com 1.10,2013-11-17 17:08:00,
2013-11-17 12:23:00,54.8,51.0,30.05,East,90,3.0,13.0,87,0.00,,,0.01,weatherlink.com 1.10,2013-11-17 17:23:00,
2013-11-17 12:38:00,55.1,51.0,30.05,SSW,207,9.0,17.0,85,0.00,,,0.01,weatherlink.com 1.10,2013-11-17 17:38:00,
2013-11-17 12:53:00,55.5,51.0,30.03,South,182,2.0,18.0,84,0.00,,,0.01,weatherlink.com 1.10,2013-11-17 17:53:00,
2013-11-17 13:08:00,55.7,51.0,30.02,SSW,199,3.0,18.0,84,0.00,,,0.01,weatherlink.com 1.10,2013-11-17 18:08:00,
2013-11-17 13:23:00,55.5,51.0,30.00,SW,235,4.0,14.0,85,0.00,,,0.01,weatherlink.com 1.10,2013-11-17 18:23:00,
2013-11-17 13:38:00,55.4,52.0,30.01,SW,221,1.0,9.0,87,0.00,,,0.01,weatherlink.com 1.10,2013-11-17 18:38:00,
2013-11-17 13:53:00,55.4,52.0,30.00,SSE,165,2.0,12.0,87,0.00,,,0.01,weatherlink.com 1.10,2013-11-17 18:53:00,
2013-11-17 14:08:00,55.5,52.0,30.00,SSW,197,5.0,15.0,88,0.00,,,0.01,weatherlink.com 1.10,2013-11-17 19:08:00,
2013-11-17 14:23:00,55.4,52.0,30.00,South,184,1.0,14.0,88,0.00,,,0.01,weatherlink.com 1.10,2013-11-17 19:23:00,
2013-11-17 14:38:00,55.4,52.0,30.00,WNW,300,3.0,11.0,88,0.00,,,0.01,weatherlink.com 1.10,2013-11-17 19:38:00,
2013-11-17 14:53:00,55.0,52.0,30.00,WSW,244,2.0,8.0,89,0.00,,,0.01,weatherlink.com 1.10,2013-11-17 19:53:00,
2013-11-17 15:08:00,55.0,52.0,29.99,SE,130,7.0,12.0,89,0.00,,,0.01,weatherlink.com 1.10,2013-11-17 20:08:00,
2013-11-17 15:23:00,54.7,52.0,29.99,ESE,111,1.0,9.0,90,0.00,,,0.01,weatherlink.com 1.10,2013-11-17 20:23:00,
2013-11-17 15:38:00,54.6,52.0,29.98,SE,133,5.0,10.0,91,0.01,,,0.02,weatherlink.com 1.10,2013-11-17 20:38:00,
2013-11-17 15:53:00,54.6,52.0,29.97,North,360,3.0,6.0,91,0.01,,,0.02,weatherlink.com 1.10,2013-11-17 20:53:00,
2013-11-17 16:08:00,54.7,52.0,29.96,SSW,202,7.0,11.0,90,0.02,,,0.03,weatherlink.com 1.10,2013-11-17 21:08:00,
2013-11-17 16:23:00,55.0,52.0,29.95,WSW,251,4.0,12.0,90,0.01,,,0.03,weatherlink.com 1.10,2013-11-17 21:23:00,
2013-11-17 16:38:00,55.1,52.0,29.94,SE,143,3.0,10.0,90,0.01,,,0.03,weatherlink.com 1.10,2013-11-17 21:38:00,
2013-11-17 16:53:00,55.3,52.0,29.93,ESE,117,9.0,9.0,89,0.01,,,0.03,weatherlink.com 1.10,2013-11-17 21:53:00,
2013-11-17 17:08:00,55.2,52.0,29.93,South,178,3.0,10.0,90,0.00,,,0.03,weatherlink.com 1.10,2013-11-17 22:08:00,
2013-11-17 17:23:00,55.4,52.0,29.91,ESE,120,9.0,13.0,89,0.00,,,0.03,weatherlink.com 1.10,2013-11-17 22:23:00,
2013-11-17 17:38:00,55.5,52.0,29.91,SW,231,9.0,12.0,88,0.00,,,0.03,weatherlink.com 1.10,2013-11-17 22:38:00,
2013-11-17 17:53:00,55.9,52.0,29.91,SSE,155,2.0,8.0,87,0.00,,,0.03,weatherlink.com 1.10,2013-11-17 22:53:00,
2013-11-17 18:08:00,55.8,52.0,29.91,SSE,147,6.0,9.0,88,0.01,,,0.04,weatherlink.com 1.10,2013-11-17 23:08:00,
2013-11-17 18:23:00,55.7,52.0,29.90,SW,227,3.0,9.0,88,0.01,,,0.04,weatherlink.com 1.10,2013-11-17 23:23:00,
2013-11-17 18:38:00,55.6,52.0,29.88,SW,229,5.0,12.0,88,0.01,,,0.04,weatherlink.com 1.10,2013-11-17 23:38:00,
2013-11-17 18:53:00,55.6,52.0,29.87,SW,215,4.0,14.0,88,0.01,,,0.04,weatherlink.com 1.10,2013-11-17 23:53:00,
2013-11-17 19:08:00,55.5,52.0,29.87,WSW,244,1.0,11.0,89,0.00,,,0.04,weatherlink.com 1.10,2013-11-18 00:08:00,
2013-11-17 19:23:00,55.8,52.0,29.86,SW,234,5.0,17.0,88,0.00,,,0.04,weatherlink.com 1.10,2013-11-18 00:23:00,
2013-11-17 19:38:00,55.6,53.0,29.83,NNW,333,3.0,15.0,89,0.00,,,0.04,weatherlink.com 1.10,2013-11-18 00:38:00,
2013-11-17 19:53:00,55.6,53.0,29.83,SW,215,9.0,10.0,89,0.00,,,0.04,weatherlink.com 1.10,2013-11-18 00:53:00,
2013-11-17 20:08:00,55.9,52.0,29.83,SSW,213,8.0,17.0,88,0.00,,,0.04,weatherlink.com 1.10,2013-11-18 01:08:00,
2013-11-17 20:23:00,56.1,52.0,29.81,South,175,5.0,19.0,87,0.00,,,0.04,weatherlink.com 1.10,2013-11-18 01:23:00,
2013-11-17 20:38:00,56.2,52.0,29.80,SW,227,4.0,14.0,87,0.00,,,0.04,weatherlink.com 1.10,2013-11-18 01:38:00,
2013-11-17 20:53:00,56.4,53.0,29.79,SW,218,12.0,15.0,87,0.00,,,0.04,weatherlink.com 1.10,2013-11-18 01:53:00,
2013-11-17 21:08:00,56.7,53.0,29.79,South,186,8.0,15.0,86,0.00,,,0.04,weatherlink.com 1.10,2013-11-18 02:08:00,
2013-11-17 21:23:00,56.8,53.0,29.78,SSW,199,4.0,20.0,87,0.00,,,0.04,weatherlink.com 1.10,2013-11-18 02:23:00,
2013-11-17 21:39:00,56.8,53.0,29.77,SW,227,16.0,17.0,86,0.00,,,0.04,weatherlink.com 1.10,2013-11-18 02:39:00,
2013-11-17 21:54:00,57.1,53.0,29.77,NNE,32,3.0,16.0,86,0.00,,,0.04,weatherlink.com 1.10,2013-11-18 02:54:00,
2013-11-17 22:09:00,56.8,53.0,29.74,SE,139,7.0,17.0,87,0.00,,,0.04,weatherlink.com 1.10,2013-11-18 03:09:00,
2013-11-17 22:24:00,56.9,53.0,29.73,East,82,1.0,20.0,87,0.00,,,0.04,weatherlink.com 1.10,2013-11-18 03:24:00,
2013-11-17 22:39:00,56.8,53.0,29.72,South,182,4.0,18.0,87,0.00,,,0.04,weatherlink.com 1.10,2013-11-18 03:39:00,
2013-11-17 22:54:00,56.8,53.0,29.71,West,261,6.0,17.0,87,0.00,,,0.04,weatherlink.com 1.10,2013-11-18 03:54:00,
2013-11-17 23:09:00,56.7,53.0,29.69,SE,145,5.0,14.0,87,0.00,,,0.04,weatherlink.com 1.10,2013-11-18 04:09:00,
2013-11-17 23:24:00,56.9,53.0,29.68,SE,144,7.0,11.0,87,0.00,,,0.04,weatherlink.com 1.10,2013-11-18 04:24:00,
2013-11-17 23:39:00,57.3,53.0,29.66,SW,235,2.0,16.0,86,0.00,,,0.04,weatherlink.com 1.10,2013-11-18 04:39:00,
2013-11-17 23:54:00,57.1,53.0,29.65,WSW,256,2.0,16.0,87,0.00,,,0.04,weatherlink.com 1.10,2013-11-18 04:54:00,